La Salle, Canada
Current Conditions -  °F | °C
As of 8:00 PM on Tuesday 25 Nov 2014 (Local Time) from CYWG Reporting Station
Broken Clouds Broken Clouds  
Wind Chill: -14°   Ceiling: 11000
Heat Index:   Visibility: 15mi
Dew Point: -2°   Wind: 16mph
Humidity: 72%   Direction: 10°N
Pressure: 30.16"   Gusts: NA
Location:  49.68°N, 97.27°W
Report Text: CYWG 260200Z 01014KT 15SM FEW040 BKN110 M15/M19 A3016 RMK SC2AC4 SLP235
Loading
Personal Weather Stations






























Interactive Weather Map New forecast layout! Learn more

10-Day Weather Forecast

Advertisements
Track Severe Weather on mobile